sensor_id;sensor_type;location;lat;lon;timestamp;temperature;humidity
29547;DHT22;40782;47.264;11.330;2023-04-15T00:02:22;5.90;1.00
29547;DHT22;40782;47.264;11.330;2023-04-15T00:04:50;5.90;1.00
29547;DHT22;40782;47.264;11.330;2023-04-15T00:07:17;6.00;1.00
29547;DHT22;40782;47.264;11.330;2023-04-15T00:09:44;6.00;1.00
29547;DHT22;40782;47.264;11.330;2023-04-15T00:12:11;5.90;1.00
29547;DHT22;40782;47.264;11.330;2023-04-15T00:14:38;5.90;1.00
29547;DHT22;40782;47.264;11.330;2023-04-15T00:17:06;5.90;1.00
29547;DHT22;40782;47.264;11.330;2023-04-15T00:19:33;5.90;21.70
29547;DHT22;40782;47.264;11.330;2023-04-15T00:22:00;6.00;22.10
29547;DHT22;40782;47.264;11.330;2023-04-15T00:24:27;6.10;99.90
29547;DHT22;40782;47.264;11.330;2023-04-15T00:26:55;6.00;1.00
29547;DHT22;40782;47.264;11.330;2023-04-15T00:29:22;6.00;1.00
29547;DHT22;40782;47.264;11.330;2023-04-15T00:31:49;5.90;99.90
29547;DHT22;40782;47.264;11.330;2023-04-15T00:34:18;5.90;1.00
29547;DHT22;40782;47.264;11.330;2023-04-15T00:36:45;5.90;99.90
29547;DHT22;40782;47.264;11.330;2023-04-15T00:39:12;5.80;1.00
29547;DHT22;40782;47.264;11.330;2023-04-15T00:41:40;5.80;99.90
29547;DHT22;40782;47.264;11.330;2023-04-15T00:44:08;5.70;1.00
29547;DHT22;40782;47.264;11.330;2023-04-15T00:46:35;5.70;1.00
29547;DHT22;40782;47.264;11.330;2023-04-15T00:49:04;5.80;1.00
29547;DHT22;40782;47.264;11.330;2023-04-15T00:51:32;5.90;1.00
29547;DHT22;40782;47.264;11.330;2023-04-15T00:54:00;6.10;99.90
29547;DHT22;40782;47.264;11.330;2023-04-15T00:56:30;6.00;1.00
29547;DHT22;40782;47.264;11.330;2023-04-15T00:58:57;6.00;99.90
29547;DHT22;40782;47.264;11.330;2023-04-15T01:01:25;6.00;1.00
29547;DHT22;40782;47.264;11.330;2023-04-15T01:03:52;6.10;1.00
29547;DHT22;40782;47.264;11.330;2023-04-15T01:06:19;6.20;1.00
29547;DHT22;40782;47.264;11.330;2023-04-15T01:08:48;6.10;99.90
29547;DHT22;40782;47.264;11.330;2023-04-15T01:11:15;6.10;79.90
29547;DHT22;40782;47.264;11.330;2023-04-15T01:13:42;6.10;99.90
29547;DHT22;40782;47.264;11.330;2023-04-15T01:16:09;6.00;1.00
29547;DHT22;40782;47.264;11.330;2023-04-15T01:18:37;6.00;1.00
29547;DHT22;40782;47.264;11.330;2023-04-15T01:21:05;5.90;1.00
29547;DHT22;40782;47.264;11.330;2023-04-15T01:23:33;5.90;1.00
29547;DHT22;40782;47.264;11.330;2023-04-15T01:26:03;6.00;99.90
29547;DHT22;40782;47.264;11.330;2023-04-15T01:28:30;6.10;1.00
29547;DHT22;40782;47.264;11.330;2023-04-15T01:31:07;6.10;99.90
29547;DHT22;40782;47.264;11.330;2023-04-15T01:33:34;5.90;1.00
29547;DHT22;40782;47.264;11.330;2023-04-15T01:36:01;5.90;1.00
29547;DHT22;40782;47.264;11.330;2023-04-15T01:38:29;5.90;99.90
29547;DHT22;40782;47.264;11.330;2023-04-15T01:40:56;5.70;99.90
29547;DHT22;40782;47.264;11.330;2023-04-15T01:43:25;5.80;99.90
29547;DHT22;40782;47.264;11.330;2023-04-15T01:45:52;5.90;1.00
29547;DHT22;40782;47.264;11.330;2023-04-15T01:48:19;5.80;99.90
29547;DHT22;40782;47.264;11.330;2023-04-15T01:50:46;5.70;58.20
29547;DHT22;40782;47.264;11.330;2023-04-15T01:53:13;5.70;1.00
29547;DHT22;40782;47.264;11.330;2023-04-15T01:55:41;5.80;1.00
29547;DHT22;40782;47.264;11.330;2023-04-15T01:58:08;5.90;1.00
29547;DHT22;40782;47.264;11.330;2023-04-15T02:00:36;5.90;99.90
29547;DHT22;40782;47.264;11.330;2023-04-15T02:03:03;5.90;1.00
29547;DHT22;40782;47.264;11.330;2023-04-15T02:05:31;5.90;1.00
29547;DHT22;40782;47.264;11.330;2023-04-15T02:07:58;6.00;99.90
29547;DHT22;40782;47.264;11.330;2023-04-15T02:10:25;6.00;1.00
29547;DHT22;40782;47.264;11.330;2023-04-15T02:12:53;6.00;1.00
29547;DHT22;40782;47.264;11.330;2023-04-15T02:15:20;5.90;1.00
29547;DHT22;40782;47.264;11.330;2023-04-15T02:17:48;5.90;1.00
29547;DHT22;40782;47.264;11.330;2023-04-15T02:20:17;6.00;99.90
29547;DHT22;40782;47.264;11.330;2023-04-15T02:22:45;6.00;1.00
29547;DHT22;40782;47.264;11.330;2023-04-15T02:25:13;6.10;1.00
29547;DHT22;40782;47.264;11.330;2023-04-15T02:27:41;6.10;99.90
29547;DHT22;40782;47.264;11.330;2023-04-15T02:30:08;6.00;99.90
29547;DHT22;40782;47.264;11.330;2023-04-15T02:32:36;5.90;1.00
29547;DHT22;40782;47.264;11.330;2023-04-15T02:35:05;5.90;99.90
29547;DHT22;40782;47.264;11.330;2023-04-15T02:37:32;5.90;99.90
29547;DHT22;40782;47.264;11.330;2023-04-15T02:40:05;5.80;1.00
29547;DHT22;40782;47.264;11.330;2023-04-15T02:42:33;5.80;1.00
29547;DHT22;40782;47.264;11.330;2023-04-15T02:45:00;5.80;1.00
29547;DHT22;40782;47.264;11.330;2023-04-15T02:47:27;5.90;99.90
29547;DHT22;40782;47.264;11.330;2023-04-15T02:49:54;5.90;1.00
29547;DHT22;40782;47.264;11.330;2023-04-15T02:52:24;5.90;1.00
29547;DHT22;40782;47.264;11.330;2023-04-15T02:54:51;5.90;1.00
29547;DHT22;40782;47.264;11.330;2023-04-15T02:57:22;5.70;1.00
29547;DHT22;40782;47.264;11.330;2023-04-15T02:59:49;5.50;1.00
29547;DHT22;40782;47.264;11.330;2023-04-15T03:02:16;5.30;1.00
29547;DHT22;40782;47.264;11.330;2023-04-15T03:04:43;5.40;1.00
29547;DHT22;40782;47.264;11.330;2023-04-15T03:07:10;5.50;1.00
29547;DHT22;40782;47.264;11.330;2023-04-15T03:09:39;5.60;1.00
29547;DHT22;40782;47.264;11.330;2023-04-15T03:12:06;5.60;1.00
29547;DHT22;40782;47.264;11.330;2023-04-15T03:14:33;5.60;1.00
29547;DHT22;40782;47.264;11.330;2023-04-15T03:17:00;5.70;1.00
29547;DHT22;40782;47.264;11.330;2023-04-15T03:19:27;5.50;1.00
29547;DHT22;40782;47.264;11.330;2023-04-15T03:21:54;5.40;1.00
29547;DHT22;40782;47.264;11.330;2023-04-15T03:24:21;5.20;1.00
29547;DHT22;40782;47.264;11.330;2023-04-15T03:26:50;5.20;99.90
29547;DHT22;40782;47.264;11.330;2023-04-15T03:29:17;5.10;99.90
29547;DHT22;40782;47.264;11.330;2023-04-15T03:31:44;5.20;99.90
29547;DHT22;40782;47.264;11.330;2023-04-15T03:34:11;5.20;99.90
29547;DHT22;40782;47.264;11.330;2023-04-15T03:36:38;5.00;1.00
29547;DHT22;40782;47.264;11.330;2023-04-15T03:39:05;5.00;1.00
29547;DHT22;40782;47.264;11.330;2023-04-15T03:41:33;5.10;1.00
29547;DHT22;40782;47.264;11.330;2023-04-15T03:44:01;5.10;99.90
29547;DHT22;40782;47.264;11.330;2023-04-15T03:46:28;5.10;1.00
29547;DHT22;40782;47.264;11.330;2023-04-15T03:48:55;5.10;99.90
29547;DHT22;40782;47.264;11.330;2023-04-15T03:51:22;5.10;1.00
29547;DHT22;40782;47.264;11.330;2023-04-15T03:53:50;5.20;1.00
29547;DHT22;40782;47.264;11.330;2023-04-15T03:56:17;5.20;1.00
29547;DHT22;40782;47.264;11.330;2023-04-15T03:58:45;5.00;99.90
29547;DHT22;40782;47.264;11.330;2023-04-15T04:01:13;4.90;1.00
29547;DHT22;40782;47.264;11.330;2023-04-15T04:03:41;4.80;99.90
29547;DHT22;40782;47.264;11.330;2023-04-15T04:06:08;5.00;99.90
29547;DHT22;40782;47.264;11.330;2023-04-15T04:08:37;5.00;1.00
29547;DHT22;40782;47.264;11.330;2023-04-15T04:11:04;5.10;1.00
29547;DHT22;40782;47.264;11.330;2023-04-15T04:13:31;5.10;1.00
29547;DHT22;40782;47.264;11.330;2023-04-15T04:15:58;5.10;99.90
29547;DHT22;40782;47.264;11.330;2023-04-15T04:18:26;5.00;1.00
29547;DHT22;40782;47.264;11.330;2023-04-15T04:20:53;4.90;99.90
29547;DHT22;40782;47.264;11.330;2023-04-15T04:23:20;5.00;1.00
29547;DHT22;40782;47.264;11.330;2023-04-15T04:25:47;5.00;1.00
29547;DHT22;40782;47.264;11.330;2023-04-15T04:28:14;4.90;15.60
29547;DHT22;40782;47.264;11.330;2023-04-15T04:30:41;4.90;1.00
29547;DHT22;40782;47.264;11.330;2023-04-15T04:33:09;5.00;43.10
29547;DHT22;40782;47.264;11.330;2023-04-15T04:35:37;4.90;94.90
29547;DHT22;40782;47.264;11.330;2023-04-15T04:38:04;4.90;1.00
29547;DHT22;40782;47.264;11.330;2023-04-15T04:40:31;4.80;99.90
29547;DHT22;40782;47.264;11.330;2023-04-15T04:42:58;4.70;1.00
29547;DHT22;40782;47.264;11.330;2023-04-15T04:45:25;4.70;99.90
29547;DHT22;40782;47.264;11.330;2023-04-15T04:47:52;4.70;1.00
29547;DHT22;40782;47.264;11.330;2023-04-15T04:50:20;4.70;99.90
29547;DHT22;40782;47.264;11.330;2023-04-15T04:52:48;4.70;8.40
29547;DHT22;40782;47.264;11.330;2023-04-15T04:55:15;4.90;99.90
29547;DHT22;40782;47.264;11.330;2023-04-15T04:57:42;4.80;1.00
29547;DHT22;40782;47.264;11.330;2023-04-15T05:00:10;4.80;1.00
29547;DHT22;40782;47.264;11.330;2023-04-15T05:02:37;4.80;99.90
29547;DHT22;40782;47.264;11.330;2023-04-15T05:05:04;4.80;99.90
29547;DHT22;40782;47.264;11.330;2023-04-15T05:07:32;4.80;99.90
29547;DHT22;40782;47.264;11.330;2023-04-15T05:10:00;4.80;1.00
29547;DHT22;40782;47.264;11.330;2023-04-15T05:12:28;4.80;99.90
29547;DHT22;40782;47.264;11.330;2023-04-15T05:14:55;4.80;1.00
29547;DHT22;40782;47.264;11.330;2023-04-15T05:17:22;4.80;99.90
29547;DHT22;40782;47.264;11.330;2023-04-15T05:19:49;4.90;1.00
29547;DHT22;40782;47.264;11.330;2023-04-15T05:22:16;4.90;1.00
29547;DHT22;40782;47.264;11.330;2023-04-15T05:24:43;4.90;99.90
29547;DHT22;40782;47.264;11.330;2023-04-15T05:27:12;4.90;1.00
29547;DHT22;40782;47.264;11.330;2023-04-15T05:29:39;4.90;1.00
29547;DHT22;40782;47.264;11.330;2023-04-15T05:32:06;5.00;1.00
29547;DHT22;40782;47.264;11.330;2023-04-15T05:34:33;5.10;1.00
29547;DHT22;40782;47.264;11.330;2023-04-15T05:37:00;5.20;99.90
29547;DHT22;40782;47.264;11.330;2023-04-15T05:39:27;5.20;99.90
29547;DHT22;40782;47.264;11.330;2023-04-15T05:41:56;5.10;1.00
29547;DHT22;40782;47.264;11.330;2023-04-15T05:44:24;5.10;1.00
29547;DHT22;40782;47.264;11.330;2023-04-15T05:46:51;5.10;1.00
29547;DHT22;40782;47.264;11.330;2023-04-15T05:49:18;5.10;1.00
29547;DHT22;40782;47.264;11.330;2023-04-15T05:51:46;5.20;1.00
29547;DHT22;40782;47.264;11.330;2023-04-15T05:54:13;5.20;1.00
29547;DHT22;40782;47.264;11.330;2023-04-15T05:56:40;5.20;1.00
29547;DHT22;40782;47.264;11.330;2023-04-15T05:59:07;5.20;1.00
29547;DHT22;40782;47.264;11.330;2023-04-15T06:01:36;5.30;1.00
29547;DHT22;40782;47.264;11.330;2023-04-15T06:04:03;5.30;1.00
29547;DHT22;40782;47.264;11.330;2023-04-15T06:06:30;5.30;1.00
29547;DHT22;40782;47.264;11.330;2023-04-15T06:08:58;5.40;1.00
29547;DHT22;40782;47.264;11.330;2023-04-15T06:11:25;5.40;1.00
29547;DHT22;40782;47.264;11.330;2023-04-15T06:13:52;5.40;1.00
29547;DHT22;40782;47.264;11.330;2023-04-15T06:16:19;5.50;1.00
29547;DHT22;40782;47.264;11.330;2023-04-15T06:18:48;5.50;1.00
29547;DHT22;40782;47.264;11.330;2023-04-15T06:21:15;5.50;1.00
29547;DHT22;40782;47.264;11.330;2023-04-15T06:23:43;5.50;1.00
29547;DHT22;40782;47.264;11.330;2023-04-15T06:26:10;5.50;1.00
29547;DHT22;40782;47.264;11.330;2023-04-15T06:28:37;5.70;1.00
29547;DHT22;40782;47.264;11.330;2023-04-15T06:31:04;5.80;1.00
29547;DHT22;40782;47.264;11.330;2023-04-15T06:33:31;5.80;1.00
29547;DHT22;40782;47.264;11.330;2023-04-15T06:36:00;5.90;1.00
29547;DHT22;40782;47.264;11.330;2023-04-15T06:38:27;5.70;1.00
29547;DHT22;40782;47.264;11.330;2023-04-15T06:40:54;5.90;1.00
29547;DHT22;40782;47.264;11.330;2023-04-15T06:43:21;5.90;1.00
29547;DHT22;40782;47.264;11.330;2023-04-15T06:45:48;6.00;1.00
29547;DHT22;40782;47.264;11.330;2023-04-15T06:48:15;6.10;1.00
29547;DHT22;40782;47.264;11.330;2023-04-15T06:50:42;6.20;1.00
29547;DHT22;40782;47.264;11.330;2023-04-15T06:53:11;6.30;1.00
29547;DHT22;40782;47.264;11.330;2023-04-15T06:55:38;6.40;1.00
29547;DHT22;40782;47.264;11.330;2023-04-15T06:58:06;6.60;1.00
29547;DHT22;40782;47.264;11.330;2023-04-15T07:00:33;6.60;1.00
29547;DHT22;40782;47.264;11.330;2023-04-15T07:03:00;6.70;1.00
29547;DHT22;40782;47.264;11.330;2023-04-15T07:05:28;6.80;1.00
29547;DHT22;40782;47.264;11.330;2023-04-15T07:07:55;7.00;1.00
29547;DHT22;40782;47.264;11.330;2023-04-15T07:10:24;7.20;1.00
29547;DHT22;40782;47.264;11.330;2023-04-15T07:12:51;7.10;1.00
29547;DHT22;40782;47.264;11.330;2023-04-15T07:15:18;7.00;1.00
29547;DHT22;40782;47.264;11.330;2023-04-15T07:17:45;7.20;99.90
29547;DHT22;40782;47.264;11.330;2023-04-15T07:20:12;6.90;99.90
29547;DHT22;40782;47.264;11.330;2023-04-15T07:22:39;7.00;99.90
29547;DHT22;40782;47.264;11.330;2023-04-15T07:25:07;7.10;99.90
29547;DHT22;40782;47.264;11.330;2023-04-15T07:27:36;7.20;99.90
29547;DHT22;40782;47.264;11.330;2023-04-15T07:30:03;7.40;99.90
29547;DHT22;40782;47.264;11.330;2023-04-15T07:32:30;7.40;99.90
29547;DHT22;40782;47.264;11.330;2023-04-15T07:34:58;7.40;99.90
29547;DHT22;40782;47.264;11.330;2023-04-15T07:37:25;7.60;99.90
29547;DHT22;40782;47.264;11.330;2023-04-15T07:39:52;7.80;99.90
29547;DHT22;40782;47.264;11.330;2023-04-15T07:42:19;8.00;99.90
29547;DHT22;40782;47.264;11.330;2023-04-15T07:44:48;8.00;99.90
29547;DHT22;40782;47.264;11.330;2023-04-15T07:47:15;8.10;99.90
29547;DHT22;40782;47.264;11.330;2023-04-15T07:49:42;8.10;99.90
29547;DHT22;40782;47.264;11.330;2023-04-15T07:52:10;8.20;99.90
29547;DHT22;40782;47.264;11.330;2023-04-15T07:54:37;8.40;99.90
29547;DHT22;40782;47.264;11.330;2023-04-15T07:57:04;8.40;99.90
29547;DHT22;40782;47.264;11.330;2023-04-15T07:59:31;8.60;99.90
29547;DHT22;40782;47.264;11.330;2023-04-15T08:02:00;8.80;99.90
29547;DHT22;40782;47.264;11.330;2023-04-15T08:04:27;8.90;99.90
29547;DHT22;40782;47.264;11.330;2023-04-15T08:06:55;8.90;99.90
29547;DHT22;40782;47.264;11.330;2023-04-15T08:09:22;8.90;99.90
29547;DHT22;40782;47.264;11.330;2023-04-15T08:11:49;9.00;99.90
29547;DHT22;40782;47.264;11.330;2023-04-15T08:14:16;9.00;99.90
29547;DHT22;40782;47.264;11.330;2023-04-15T08:16:43;9.20;99.90
29547;DHT22;40782;47.264;11.330;2023-04-15T08:19:12;9.00;99.90
29547;DHT22;40782;47.264;11.330;2023-04-15T08:21:39;9.10;99.90
29547;DHT22;40782;47.264;11.330;2023-04-15T08:24:06;9.30;99.90
29547;DHT22;40782;47.264;11.330;2023-04-15T08:26:33;9.30;99.90
29547;DHT22;40782;47.264;11.330;2023-04-15T08:29:00;9.30;99.90
29547;DHT22;40782;47.264;11.330;2023-04-15T08:31:28;9.40;99.90
29547;DHT22;40782;47.264;11.330;2023-04-15T08:33:55;9.70;99.90
29547;DHT22;40782;47.264;11.330;2023-04-15T08:36:24;9.70;99.90
29547;DHT22;40782;47.264;11.330;2023-04-15T08:38:51;9.50;99.90
29547;DHT22;40782;47.264;11.330;2023-04-15T08:41:19;9.70;99.90
29547;DHT22;40782;47.264;11.330;2023-04-15T08:43:48;9.90;99.90
29547;DHT22;40782;47.264;11.330;2023-04-15T08:46:17;9.90;99.90
29547;DHT22;40782;47.264;11.330;2023-04-15T08:48:45;9.90;99.90
29547;DHT22;40782;47.264;11.330;2023-04-15T08:51:13;9.70;99.90
29547;DHT22;40782;47.264;11.330;2023-04-15T08:53:43;9.80;99.90
29547;DHT22;40782;47.264;11.330;2023-04-15T08:56:11;10.10;99.90
29547;DHT22;40782;47.264;11.330;2023-04-15T08:58:39;10.40;99.90
29547;DHT22;40782;47.264;11.330;2023-04-15T09:01:06;10.40;99.90
29547;DHT22;40782;47.264;11.330;2023-04-15T09:03:34;10.00;99.90
29547;DHT22;40782;47.264;11.330;2023-04-15T09:06:02;9.80;99.90
29547;DHT22;40782;47.264;11.330;2023-04-15T09:08:30;10.00;99.90
29547;DHT22;40782;47.264;11.330;2023-04-15T09:10:58;9.90;99.90
29547;DHT22;40782;47.264;11.330;2023-04-15T09:13:25;10.20;99.90
29547;DHT22;40782;47.264;11.330;2023-04-15T09:15:52;10.50;99.90
29547;DHT22;40782;47.264;11.330;2023-04-15T09:18:26;10.70;99.90
29547;DHT22;40782;47.264;11.330;2023-04-15T09:20:54;10.70;99.90
29547;DHT22;40782;47.264;11.330;2023-04-15T09:23:21;11.00;99.90
29547;DHT22;40782;47.264;11.330;2023-04-15T09:25:48;10.90;99.90
29547;DHT22;40782;47.264;11.330;2023-04-15T09:28:23;11.00;99.90
29547;DHT22;40782;47.264;11.330;2023-04-15T09:30:54;11.10;99.90
29547;DHT22;40782;47.264;11.330;2023-04-15T09:33:22;11.20;99.90
29547;DHT22;40782;47.264;11.330;2023-04-15T09:35:55;11.10;99.90
29547;DHT22;40782;47.264;11.330;2023-04-15T09:38:22;11.30;99.90
29547;DHT22;40782;47.264;11.330;2023-04-15T09:40:49;11.30;99.90
29547;DHT22;40782;47.264;11.330;2023-04-15T09:43:16;11.60;99.90
29547;DHT22;40782;47.264;11.330;2023-04-15T09:45:47;11.70;99.90
29547;DHT22;40782;47.264;11.330;2023-04-15T09:48:15;11.90;99.90
29547;DHT22;40782;47.264;11.330;2023-04-15T09:50:43;12.10;99.90
29547;DHT22;40782;47.264;11.330;2023-04-15T09:53:10;12.20;99.90
29547;DHT22;40782;47.264;11.330;2023-04-15T09:55:37;12.00;99.90
29547;DHT22;40782;47.264;11.330;2023-04-15T09:58:07;11.90;99.90
29547;DHT22;40782;47.264;11.330;2023-04-15T10:00:34;12.00;99.90
29547;DHT22;40782;47.264;11.330;2023-04-15T10:03:03;12.10;99.90
29547;DHT22;40782;47.264;11.330;2023-04-15T10:05:31;12.20;99.90
29547;DHT22;40782;47.264;11.330;2023-04-15T10:07:59;12.40;99.90
29547;DHT22;40782;47.264;11.330;2023-04-15T10:10:27;12.70;99.90
29547;DHT22;40782;47.264;11.330;2023-04-15T10:12:54;12.60;99.90
29547;DHT22;40782;47.264;11.330;2023-04-15T10:15:21;12.80;99.90
29547;DHT22;40782;47.264;11.330;2023-04-15T10:17:49;12.90;99.90
29547;DHT22;40782;47.264;11.330;2023-04-15T10:20:18;12.90;99.90
29547;DHT22;40782;47.264;11.330;2023-04-15T10:22:45;12.80;99.90
29547;DHT22;40782;47.264;11.330;2023-04-15T10:25:12;12.90;99.90
29547;DHT22;40782;47.264;11.330;2023-04-15T10:27:41;13.00;99.90
29547;DHT22;40782;47.264;11.330;2023-04-15T10:30:08;13.00;99.90
29547;DHT22;40782;47.264;11.330;2023-04-15T10:32:36;12.90;99.90
29547;DHT22;40782;47.264;11.330;2023-04-15T10:35:04;13.00;99.90
29547;DHT22;40782;47.264;11.330;2023-04-15T10:37:34;13.00;99.90
29547;DHT22;40782;47.264;11.330;2023-04-15T10:42:47;13.00;99.90
29547;DHT22;40782;47.264;11.330;2023-04-15T10:45:15;12.90;99.90
29547;DHT22;40782;47.264;11.330;2023-04-15T10:47:42;12.90;99.90
29547;DHT22;40782;47.264;11.330;2023-04-15T10:50:09;12.80;99.90
29547;DHT22;40782;47.264;11.330;2023-04-15T10:52:40;12.90;99.90
29547;DHT22;40782;47.264;11.330;2023-04-15T10:55:13;12.90;99.90
29547;DHT22;40782;47.264;11.330;2023-04-15T10:57:41;12.90;99.90
29547;DHT22;40782;47.264;11.330;2023-04-15T11:00:09;12.70;99.90
29547;DHT22;40782;47.264;11.330;2023-04-15T11:02:37;12.70;99.90
29547;DHT22;40782;47.264;11.330;2023-04-15T11:05:05;12.60;99.90
29547;DHT22;40782;47.264;11.330;2023-04-15T11:07:33;12.70;99.90
29547;DHT22;40782;47.264;11.330;2023-04-15T11:10:01;12.60;99.90
29547;DHT22;40782;47.264;11.330;2023-04-15T11:12:32;12.40;99.90
29547;DHT22;40782;47.264;11.330;2023-04-15T11:15:00;12.40;99.90
29547;DHT22;40782;47.264;11.330;2023-04-15T11:17:48;12.50;99.90
29547;DHT22;40782;47.264;11.330;2023-04-15T11:20:15;12.50;99.90
29547;DHT22;40782;47.264;11.330;2023-04-15T11:22:46;12.60;99.90
29547;DHT22;40782;47.264;11.330;2023-04-15T11:25:22;12.80;99.90
29547;DHT22;40782;47.264;11.330;2023-04-15T11:27:49;12.80;99.90
29547;DHT22;40782;47.264;11.330;2023-04-15T11:30:17;12.80;99.90
29547;DHT22;40782;47.264;11.330;2023-04-15T11:32:45;12.80;99.90
29547;DHT22;40782;47.264;11.330;2023-04-15T11:35:12;12.90;99.90
29547;DHT22;40782;47.264;11.330;2023-04-15T11:37:39;13.00;99.90
29547;DHT22;40782;47.264;11.330;2023-04-15T11:40:08;13.20;99.90
29547;DHT22;40782;47.264;11.330;2023-04-15T11:42:36;13.40;99.90
29547;DHT22;40782;47.264;11.330;2023-04-15T11:45:07;13.70;99.90
29547;DHT22;40782;47.264;11.330;2023-04-15T11:47:35;13.90;99.90
29547;DHT22;40782;47.264;11.330;2023-04-15T11:50:15;14.00;99.90
29547;DHT22;40782;47.264;11.330;2023-04-15T11:52:51;14.00;99.90
29547;DHT22;40782;47.264;11.330;2023-04-15T11:55:18;13.80;99.90
29547;DHT22;40782;47.264;11.330;2023-04-15T11:57:46;13.50;99.90
29547;DHT22;40782;47.264;11.330;2023-04-15T12:00:13;13.30;99.90
29547;DHT22;40782;47.264;11.330;2023-04-15T12:02:42;13.00;99.90
29547;DHT22;40782;47.264;11.330;2023-04-15T12:05:09;12.90;99.90
29547;DHT22;40782;47.264;11.330;2023-04-15T12:10:23;12.70;99.90
29547;DHT22;40782;47.264;11.330;2023-04-15T12:12:52;12.70;99.90
29547;DHT22;40782;47.264;11.330;2023-04-15T12:15:20;12.80;99.90
29547;DHT22;40782;47.264;11.330;2023-04-15T12:17:47;12.70;99.90
29547;DHT22;40782;47.264;11.330;2023-04-15T12:20:19;12.70;99.90
29547;DHT22;40782;47.264;11.330;2023-04-15T12:22:46;12.70;99.90
29547;DHT22;40782;47.264;11.330;2023-04-15T12:25:13;12.60;99.90
29547;DHT22;40782;47.264;11.330;2023-04-15T12:27:40;12.40;99.90
29547;DHT22;40782;47.264;11.330;2023-04-15T12:30:09;12.30;99.90
29547;DHT22;40782;47.264;11.330;2023-04-15T12:32:37;12.40;99.90
29547;DHT22;40782;47.264;11.330;2023-04-15T12:35:06;12.70;99.90
29547;DHT22;40782;47.264;11.330;2023-04-15T12:37:33;12.90;99.90
29547;DHT22;40782;47.264;11.330;2023-04-15T12:40:00;13.20;99.90
29547;DHT22;40782;47.264;11.330;2023-04-15T12:42:27;13.30;99.90
29547;DHT22;40782;47.264;11.330;2023-04-15T12:44:55;13.40;99.90
29547;DHT22;40782;47.264;11.330;2023-04-15T12:47:23;13.40;99.90
29547;DHT22;40782;47.264;11.330;2023-04-15T12:49:50;13.30;99.90
29547;DHT22;40782;47.264;11.330;2023-04-15T12:52:18;13.20;99.90
29547;DHT22;40782;47.264;11.330;2023-04-15T12:54:45;13.00;99.90
29547;DHT22;40782;47.264;11.330;2023-04-15T12:57:12;12.80;99.90
29547;DHT22;40782;47.264;11.330;2023-04-15T12:59:39;12.50;99.90
29547;DHT22;40782;47.264;11.330;2023-04-15T13:02:06;12.40;99.90
29547;DHT22;40782;47.264;11.330;2023-04-15T13:04:35;12.30;99.90
29547;DHT22;40782;47.264;11.330;2023-04-15T13:07:02;12.30;99.90
29547;DHT22;40782;47.264;11.330;2023-04-15T13:09:29;12.10;99.90
29547;DHT22;40782;47.264;11.330;2023-04-15T13:11:56;12.00;99.90
29547;DHT22;40782;47.264;11.330;2023-04-15T13:14:23;11.90;99.90
29547;DHT22;40782;47.264;11.330;2023-04-15T13:16:51;11.80;99.90
29547;DHT22;40782;47.264;11.330;2023-04-15T13:19:19;11.80;99.90
29547;DHT22;40782;47.264;11.330;2023-04-15T13:21:47;11.90;99.90
29547;DHT22;40782;47.264;11.330;2023-04-15T13:24:15;11.80;99.90
29547;DHT22;40782;47.264;11.330;2023-04-15T13:26:42;11.90;99.90
29547;DHT22;40782;47.264;11.330;2023-04-15T13:29:09;11.90;99.90
29547;DHT22;40782;47.264;11.330;2023-04-15T13:31:36;12.10;99.90
29547;DHT22;40782;47.264;11.330;2023-04-15T13:34:03;12.40;99.90
29547;DHT22;40782;47.264;11.330;2023-04-15T13:36:30;12.50;99.90
29547;DHT22;40782;47.264;11.330;2023-04-15T13:38:59;12.50;99.90
29547;DHT22;40782;47.264;11.330;2023-04-15T13:41:26;12.40;99.90
29547;DHT22;40782;47.264;11.330;2023-04-15T13:43:53;12.40;99.90
29547;DHT22;40782;47.264;11.330;2023-04-15T13:46:20;12.40;99.90
29547;DHT22;40782;47.264;11.330;2023-04-15T13:48:47;12.40;99.90
29547;DHT22;40782;47.264;11.330;2023-04-15T13:51:14;12.40;99.90
29547;DHT22;40782;47.264;11.330;2023-04-15T13:53:41;12.50;99.90
29547;DHT22;40782;47.264;11.330;2023-04-15T13:56:10;12.50;99.90
29547;DHT22;40782;47.264;11.330;2023-04-15T13:58:37;12.40;99.90
29547;DHT22;40782;47.264;11.330;2023-04-15T14:01:04;12.10;99.90
29547;DHT22;40782;47.264;11.330;2023-04-15T14:03:31;12.00;99.90
29547;DHT22;40782;47.264;11.330;2023-04-15T14:05:58;12.10;99.90
29547;DHT22;40782;47.264;11.330;2023-04-15T14:08:25;12.30;99.90
29547;DHT22;40782;47.264;11.330;2023-04-15T14:10:52;12.40;99.90
29547;DHT22;40782;47.264;11.330;2023-04-15T14:13:21;12.40;99.90
29547;DHT22;40782;47.264;11.330;2023-04-15T14:15:48;12.30;99.90
29547;DHT22;40782;47.264;11.330;2023-04-15T14:18:15;12.20;99.90
29547;DHT22;40782;47.264;11.330;2023-04-15T14:20:42;12.10;99.90
29547;DHT22;40782;47.264;11.330;2023-04-15T14:23:09;12.10;99.90
29547;DHT22;40782;47.264;11.330;2023-04-15T14:25:36;11.90;99.90
29547;DHT22;40782;47.264;11.330;2023-04-15T14:28:04;11.80;99.90
29547;DHT22;40782;47.264;11.330;2023-04-15T14:30:32;11.60;99.90
29547;DHT22;40782;47.264;11.330;2023-04-15T14:32:59;11.60;99.90
29547;DHT22;40782;47.264;11.330;2023-04-15T14:35:27;11.50;99.90
29547;DHT22;40782;47.264;11.330;2023-04-15T14:37:54;11.30;99.90
29547;DHT22;40782;47.264;11.330;2023-04-15T14:40:21;11.20;99.90
29547;DHT22;40782;47.264;11.330;2023-04-15T14:42:48;11.10;99.90
29547;DHT22;40782;47.264;11.330;2023-04-15T14:45:16;11.00;99.90
29547;DHT22;40782;47.264;11.330;2023-04-15T14:47:44;11.00;99.90
29547;DHT22;40782;47.264;11.330;2023-04-15T14:50:12;10.90;99.90
29547;DHT22;40782;47.264;11.330;2023-04-15T14:52:39;10.80;99.90
29547;DHT22;40782;47.264;11.330;2023-04-15T14:55:06;10.80;99.90
29547;DHT22;40782;47.264;11.330;2023-04-15T14:57:34;10.70;99.90
29547;DHT22;40782;47.264;11.330;2023-04-15T15:00:01;10.70;99.90
29547;DHT22;40782;47.264;11.330;2023-04-15T15:02:29;10.60;99.90
29547;DHT22;40782;47.264;11.330;2023-04-15T15:04:57;10.60;99.90
29547;DHT22;40782;47.264;11.330;2023-04-15T15:07:24;10.60;99.90
29547;DHT22;40782;47.264;11.330;2023-04-15T15:09:52;10.50;99.90
29547;DHT22;40782;47.264;11.330;2023-04-15T15:12:19;10.50;99.90
29547;DHT22;40782;47.264;11.330;2023-04-15T15:14:48;10.40;99.90
29547;DHT22;40782;47.264;11.330;2023-04-15T15:17:15;10.40;99.90
29547;DHT22;40782;47.264;11.330;2023-04-15T15:19:42;10.40;99.90
29547;DHT22;40782;47.264;11.330;2023-04-15T15:22:11;10.30;99.90
29547;DHT22;40782;47.264;11.330;2023-04-15T15:24:38;10.30;99.90
29547;DHT22;40782;47.264;11.330;2023-04-15T15:27:06;10.20;99.90
29547;DHT22;40782;47.264;11.330;2023-04-15T15:29:33;10.20;99.90
29547;DHT22;40782;47.264;11.330;2023-04-15T15:32:00;10.20;99.90
29547;DHT22;40782;47.264;11.330;2023-04-15T15:34:27;10.20;99.90
29547;DHT22;40782;47.264;11.330;2023-04-15T15:36:54;10.20;99.90
29547;DHT22;40782;47.264;11.330;2023-04-15T15:39:23;10.20;99.90